createdAt,value
2018-08-24T00:00:27.001Z,69.47
2018-08-24T00:02:55.243Z,69.48
2018-08-24T00:05:23.439Z,69.52
2018-08-24T00:07:51.551Z,69.25
2018-08-24T00:10:19.983Z,69.66
2018-08-24T00:12:48.306Z,69.08
2018-08-24T00:15:16.463Z,69.50
2018-08-24T00:17:46.683Z,69.71
2018-08-24T00:20:14.929Z,69.13
2018-08-24T00:22:43.273Z,70.11
2018-08-24T00:25:11.557Z,69.34
2018-08-24T00:27:39.949Z,70.03
2018-08-24T00:30:08.509Z,70.18
2018-08-24T00:32:36.748Z,69.77
2018-08-24T00:35:04.911Z,69.78
2018-08-24T00:37:33.171Z,69.97
2018-08-24T00:40:01.367Z,69.04
2018-08-24T00:42:29.610Z,69.94
2018-08-24T00:44:57.901Z,69.66
2018-08-24T00:47:26.102Z,69.26
2018-08-24T00:49:54.282Z,70.00
2018-08-24T00:52:23.138Z,69.98
2018-08-24T00:54:51.443Z,69.17
2018-08-24T00:57:19.592Z,70.00
2018-08-24T00:59:47.820Z,69.27
2018-08-24T01:02:16.148Z,68.99
2018-08-24T01:04:44.426Z,69.20
2018-08-24T01:07:13.621Z,68.72
2018-08-24T01:09:42.352Z,68.61
2018-08-24T01:12:12.776Z,68.92
2018-08-24T01:14:45.014Z,69.10
2018-08-24T01:17:18.926Z,69.06
2018-08-24T01:19:47.400Z,69.21
2018-08-24T01:22:24.577Z,69.00
2018-08-24T01:24:52.825Z,69.30
2018-08-24T01:27:21.013Z,68.75
2018-08-24T01:29:49.254Z,68.49
2018-08-24T01:32:17.401Z,69.91
2018-08-24T01:34:45.496Z,70.45
2018-08-24T01:37:13.915Z,70.87
2018-08-24T01:39:42.119Z,70.13
2018-08-24T01:42:10.320Z,71.06
2018-08-24T01:44:38.505Z,70.51
2018-08-24T01:47:06.773Z,71.09
2018-08-24T01:49:34.867Z,71.64
2018-08-24T01:52:03.060Z,70.83
2018-08-24T01:54:31.175Z,70.52
2018-08-24T01:56:59.287Z,71.44
2018-08-24T01:59:27.389Z,70.89
2018-08-24T02:01:55.470Z,70.94
2018-08-24T02:04:23.727Z,71.64
2018-08-24T02:06:51.939Z,71.53
2018-08-24T02:09:22.900Z,72.11
2018-08-24T02:11:51.524Z,72.38
2018-08-24T02:14:25.475Z,72.10
2018-08-24T02:16:53.697Z,72.52
2018-08-24T02:19:27.608Z,72.66
2018-08-24T02:22:01.397Z,72.50
2018-08-24T02:24:29.563Z,72.41
2018-08-24T02:26:57.843Z,72.38
2018-08-24T02:29:26.747Z,72.91
2018-08-24T02:31:54.976Z,72.86
2018-08-24T02:34:23.219Z,72.65
2018-08-24T02:36:51.552Z,72.76
2018-08-24T02:39:19.700Z,73.62
2018-08-24T02:41:48.011Z,73.83
2018-08-24T02:44:16.135Z,73.36
2018-08-24T02:46:44.515Z,73.81
2018-08-24T02:49:12.765Z,73.50
2018-08-24T02:51:40.906Z,73.91
2018-08-24T02:54:09.105Z,73.22
2018-08-24T02:56:37.256Z,72.93
2018-08-24T02:59:05.386Z,73.04
2018-08-24T03:01:33.650Z,73.06
2018-08-24T03:04:01.838Z,72.07
2018-08-24T03:06:30.022Z,71.81
2018-08-24T03:08:58.182Z,71.45
2018-08-24T03:11:26.402Z,71.82
2018-08-24T03:13:54.712Z,71.82
2018-08-24T03:16:22.969Z,71.46
2018-08-24T03:18:51.184Z,71.17
2018-08-24T03:21:19.392Z,70.82
2018-08-24T03:23:47.521Z,70.71
2018-08-24T03:26:15.726Z,70.41
2018-08-24T03:28:43.878Z,70.86
2018-08-24T03:31:11.947Z,71.27
2018-08-24T03:33:40.079Z,70.29
2018-08-24T03:36:08.388Z,70.41
2018-08-24T03:38:36.623Z,70.57
2018-08-24T03:41:04.905Z,70.42
2018-08-24T03:43:33.075Z,69.78
2018-08-24T03:46:01.379Z,70.25
2018-08-24T03:48:29.479Z,71.46
2018-08-24T03:50:57.741Z,70.69
2018-08-24T03:53:25.990Z,72.22
2018-08-24T03:55:54.105Z,73.53
2018-08-24T03:58:22.403Z,73.54
2018-08-24T04:00:55.096Z,74.33
2018-08-24T04:03:23.295Z,74.53
2018-08-24T04:05:51.597Z,73.03
2018-08-24T04:08:19.880Z,73.83
2018-08-24T04:10:47.991Z,74.79
2018-08-24T04:13:16.257Z,74.39
2018-08-24T04:15:44.603Z,75.85
2018-08-24T04:18:12.890Z,76.33
2018-08-24T04:20:41.619Z,73.93
2018-08-24T04:23:09.831Z,73.34
2018-08-24T04:25:38.100Z,74.64
2018-08-24T04:28:06.553Z,73.37
2018-08-24T04:30:35.294Z,74.63
2018-08-24T04:33:03.675Z,73.01
2018-08-24T04:35:31.870Z,74.87
2018-08-24T04:38:00.223Z,75.32
2018-08-24T04:40:28.713Z,74.31
2018-08-24T04:42:57.093Z,74.68
2018-08-24T04:45:25.334Z,73.77
2018-08-24T04:47:53.489Z,72.17
2018-08-24T04:50:21.667Z,72.89
2018-08-24T04:52:49.818Z,72.45
2018-08-24T04:55:18.891Z,71.98
2018-08-24T04:57:47.148Z,72.57
2018-08-24T05:00:15.304Z,72.28
2018-08-24T05:02:43.553Z,72.49
2018-08-24T05:05:11.734Z,72.79
2018-08-24T05:07:39.942Z,72.88
2018-08-24T05:10:08.125Z,73.09
2018-08-24T05:12:36.504Z,72.86
2018-08-24T05:15:05.007Z,72.71
2018-08-24T05:17:34.821Z,73.43
2018-08-24T05:20:03.101Z,72.99
2018-08-24T05:22:31.370Z,71.96
2018-08-24T05:24:59.632Z,71.79
2018-08-24T05:27:27.926Z,71.33
2018-08-24T05:29:56.134Z,70.82
2018-08-24T05:32:25.077Z,72.27
2018-08-24T05:34:53.332Z,71.47
2018-08-24T05:37:21.862Z,70.31
2018-08-24T05:39:50.110Z,71.58
2018-08-24T05:42:18.386Z,70.86
2018-08-24T05:44:46.602Z,70.85
2018-08-24T05:47:14.719Z,69.43
2018-08-24T05:49:42.905Z,68.37
2018-08-24T05:52:12.730Z,69.30
2018-08-24T05:54:50.839Z,68.29
2018-08-24T05:57:18.986Z,68.09
2018-08-24T05:59:47.361Z,67.16
2018-08-24T06:02:16.143Z,66.95
2018-08-24T06:04:44.377Z,66.91
2018-08-24T06:07:12.495Z,65.89
2018-08-24T06:09:40.780Z,64.89
2018-08-24T06:12:08.986Z,64.00
2018-08-24T06:14:37.099Z,64.00
2018-08-24T06:17:11.030Z,62.49
2018-08-24T06:19:39.157Z,62.79
2018-08-24T06:22:07.449Z,62.51
2018-08-24T06:24:35.681Z,61.50
2018-08-24T06:27:03.728Z,60.34
2018-08-24T06:29:31.898Z,58.55
2018-08-24T06:32:00.060Z,58.00
2018-08-24T06:34:28.167Z,57.55
2018-08-24T06:36:56.399Z,57.86
2018-08-24T06:39:24.574Z,59.07
2018-08-24T06:41:52.804Z,57.15
2018-08-24T06:44:20.818Z,56.82
2018-08-24T06:46:48.907Z,57.44
2018-08-24T06:49:16.987Z,56.01
2018-08-24T06:51:45.464Z,55.04
2018-08-24T06:54:13.717Z,56.05
2018-08-24T06:56:41.979Z,56.42
2018-08-24T06:59:10.392Z,56.16
2018-08-24T07:01:45.149Z,54.67
2018-08-24T07:04:13.458Z,53.59
2018-08-24T07:06:42.051Z,52.71
2018-08-24T07:09:10.325Z,51.08
2018-08-24T07:11:39.325Z,50.81
2018-08-24T07:14:07.562Z,52.32
2018-08-24T07:16:35.893Z,52.47
2018-08-24T07:19:04.289Z,50.39
2018-08-24T07:21:32.697Z,48.92
2018-08-24T07:24:00.837Z,48.27
2018-08-24T07:26:29.109Z,47.11
2018-08-24T07:28:57.448Z,46.66
2018-08-24T07:31:25.780Z,46.79
2018-08-24T07:33:54.142Z,46.43
2018-08-24T07:36:22.424Z,45.28
2018-08-24T07:38:50.699Z,41.02
2018-08-24T07:41:19.181Z,38.11
2018-08-24T07:43:47.463Z,36.98
2018-08-24T07:46:15.699Z,37.10
2018-08-24T07:48:44.392Z,38.59
2018-08-24T07:51:12.848Z,40.03
2018-08-24T07:53:41.269Z,39.70
2018-08-24T07:56:09.533Z,39.02
2018-08-24T07:58:37.944Z,39.44
2018-08-24T08:01:06.241Z,40.64
2018-08-24T08:03:34.613Z,40.61
2018-08-24T08:06:02.908Z,39.28
2018-08-24T08:08:31.244Z,37.58
2018-08-24T08:10:59.497Z,37.83
2018-08-24T08:13:27.962Z,39.89
2018-08-24T08:15:56.295Z,40.93
2018-08-24T08:18:24.609Z,43.22
2018-08-24T08:20:52.851Z,43.99
2018-08-24T08:23:21.068Z,41.58
2018-08-24T08:25:49.358Z,37.92
2018-08-24T08:28:17.596Z,36.14
2018-08-24T08:30:45.825Z,29.91
2018-08-24T08:33:14.056Z,28.91
2018-08-24T08:35:42.346Z,29.28
2018-08-24T08:38:10.629Z,29.61
2018-08-24T08:40:38.838Z,26.19
2018-08-24T08:43:07.195Z,23.58
2018-08-24T08:45:36.608Z,21.72
2018-08-24T08:48:04.830Z,20.82
2018-08-24T08:50:33.090Z,23.33
2018-08-24T08:53:01.429Z,24.50
2018-08-24T08:55:29.700Z,24.74
2018-08-24T08:57:57.989Z,24.98
2018-08-24T09:00:27.055Z,26.15
2018-08-24T09:02:55.409Z,26.44
2018-08-24T09:05:24.042Z,24.15
2018-08-24T09:07:52.338Z,22.11
2018-08-24T09:10:20.539Z,19.40
2018-08-24T09:12:48.840Z,18.06
2018-08-24T09:15:17.035Z,17.67
2018-08-24T09:17:50.643Z,19.50
2018-08-24T09:20:24.449Z,20.35
2018-08-24T09:22:58.273Z,21.63
2018-08-24T09:25:32.249Z,25.02
2018-08-24T09:28:10.814Z,26.09
2018-08-24T09:30:42.676Z,28.06
2018-08-24T09:33:10.934Z,30.24
2018-08-24T09:35:39.152Z,27.97
2018-08-24T09:38:07.992Z,29.42
2018-08-24T09:40:41.962Z,29.25
2018-08-24T09:43:15.632Z,28.92
2018-08-24T09:45:44.012Z,27.45
2018-08-24T09:48:17.844Z,26.95
2018-08-24T09:50:51.759Z,27.82
2018-08-24T09:53:25.742Z,27.97
2018-08-24T09:55:54.012Z,26.33
2018-08-24T09:58:22.245Z,24.47
2018-08-24T10:00:56.240Z,22.47
2018-08-24T10:03:29.949Z,22.18
2018-08-24T10:06:03.656Z,19.04
2018-08-24T10:08:37.418Z,18.16
2018-08-24T10:11:05.520Z,18.69
2018-08-24T10:13:33.699Z,18.88
2018-08-24T10:16:01.840Z,18.80
2018-08-24T10:18:33.283Z,19.46
2018-08-24T10:21:01.567Z,22.93
2018-08-24T10:23:29.655Z,26.12
2018-08-24T10:25:57.731Z,34.23
2018-08-24T10:28:25.890Z,38.08
2018-08-24T10:30:54.255Z,38.84
2018-08-24T10:33:22.495Z,40.47
2018-08-24T10:35:50.611Z,42.82
2018-08-24T10:38:19.047Z,43.50
2018-08-24T10:40:47.182Z,42.21
2018-08-24T10:43:15.851Z,41.93
2018-08-24T10:45:44.143Z,42.58
2018-08-24T10:48:12.449Z,41.36
2018-08-24T10:50:40.803Z,39.05
2018-08-24T10:53:09.136Z,33.11
2018-08-24T10:55:37.429Z,27.68
2018-08-24T10:58:06.417Z,26.21
2018-08-24T11:00:34.718Z,21.92
2018-08-24T11:03:02.939Z,21.06
2018-08-24T11:05:31.332Z,21.50
2018-08-24T11:07:59.530Z,20.77
2018-08-24T11:10:27.959Z,20.62
2018-08-24T11:12:56.198Z,22.14
2018-08-24T11:15:24.395Z,21.60
2018-08-24T11:17:58.204Z,21.44
2018-08-24T11:20:26.399Z,18.97
2018-08-24T11:22:54.699Z,21.49
2018-08-24T11:25:23.009Z,23.14
2018-08-24T11:27:51.250Z,24.81
2018-08-24T11:30:21.039Z,25.70
2018-08-24T11:32:49.949Z,23.68
2018-08-24T11:35:20.332Z,20.08
2018-08-24T11:37:49.259Z,17.32
2018-08-24T11:40:17.822Z,16.70
2018-08-24T11:42:46.427Z,16.59
2018-08-24T11:45:14.640Z,19.23
2018-08-24T11:47:42.927Z,21.26
2018-08-24T11:50:11.148Z,22.66
2018-08-24T11:52:39.365Z,25.18
2018-08-24T11:55:07.662Z,26.59
2018-08-24T11:57:35.886Z,28.04
2018-08-24T12:00:04.761Z,28.40
2018-08-24T12:02:33.767Z,30.71
2018-08-24T12:05:03.364Z,30.79
2018-08-24T12:07:31.565Z,30.59
2018-08-24T12:09:59.699Z,31.35
2018-08-24T12:12:27.921Z,32.07
2018-08-24T12:14:56.187Z,33.41
2018-08-24T12:17:35.771Z,34.21
2018-08-24T12:20:04.463Z,33.07
2018-08-24T12:22:32.763Z,33.29
2018-08-24T12:25:01.003Z,33.94
2018-08-24T12:27:29.157Z,33.20
2018-08-24T12:29:57.401Z,31.53
2018-08-24T12:32:25.631Z,30.87
2018-08-24T12:34:53.945Z,31.11
2018-08-24T12:37:22.660Z,31.82
2018-08-24T12:39:51.063Z,30.63
2018-08-24T12:42:26.137Z,31.00
2018-08-24T12:44:54.438Z,31.29
2018-08-24T12:47:22.705Z,30.75
2018-08-24T12:49:51.047Z,30.48
2018-08-24T12:52:19.322Z,31.21
2018-08-24T12:54:47.566Z,30.92
2018-08-24T12:57:15.813Z,31.07
2018-08-24T12:59:44.160Z,32.40
2018-08-24T13:02:15.757Z,32.75
2018-08-24T13:04:45.164Z,35.58
2018-08-24T13:07:13.720Z,37.58
2018-08-24T13:09:41.961Z,38.21
2018-08-24T13:12:10.258Z,40.22
2018-08-24T13:14:38.532Z,40.59
2018-08-24T13:17:06.709Z,40.69
2018-08-24T13:19:35.054Z,41.06
2018-08-24T13:22:03.272Z,41.47
2018-08-24T13:24:32.332Z,42.25
2018-08-24T13:27:00.660Z,42.32
2018-08-24T13:29:28.958Z,42.92
2018-08-24T13:31:58.258Z,43.18
2018-08-24T13:34:33.084Z,44.23
2018-08-24T13:37:01.466Z,44.45
2018-08-24T13:39:29.618Z,47.37
2018-08-24T13:42:04.512Z,48.43
2018-08-24T13:44:38.446Z,48.54
2018-08-24T13:47:06.748Z,49.47
2018-08-24T13:49:35.445Z,49.16
2018-08-24T13:52:12.848Z,49.94
2018-08-24T13:54:41.222Z,49.13
2018-08-24T13:57:11.325Z,48.55
2018-08-24T13:59:40.743Z,48.57
2018-08-24T14:02:08.993Z,48.78
2018-08-24T14:04:37.305Z,48.12
2018-08-24T14:07:05.662Z,47.87
2018-08-24T14:09:33.951Z,47.68
2018-08-24T14:12:02.313Z,47.50
2018-08-24T14:14:30.481Z,49.53
2018-08-24T14:16:58.785Z,48.56
2018-08-24T14:19:27.647Z,49.09
2018-08-24T14:21:55.957Z,48.31
2018-08-24T14:24:24.418Z,48.95
2018-08-24T14:26:52.648Z,48.75
2018-08-24T14:29:22.183Z,49.43
2018-08-24T14:31:57.220Z,49.35
2018-08-24T14:34:25.489Z,49.48
2018-08-24T14:37:00.748Z,49.70
2018-08-24T14:39:29.460Z,49.49
2018-08-24T14:42:01.067Z,48.98
2018-08-24T14:44:30.191Z,49.63
2018-08-24T14:46:58.475Z,49.00
2018-08-24T14:49:26.776Z,47.26
2018-08-24T14:51:54.981Z,46.03
2018-08-24T14:54:23.417Z,45.90
2018-08-24T14:56:51.673Z,44.54
2018-08-24T14:59:19.956Z,45.31
2018-08-24T15:01:48.167Z,45.23
2018-08-24T15:04:16.390Z,45.41
2018-08-24T15:06:44.685Z,45.24
2018-08-24T15:09:13.019Z,45.37
2018-08-24T15:11:41.590Z,45.01
2018-08-24T15:14:10.545Z,44.77
2018-08-24T15:16:50.860Z,45.35
2018-08-24T15:19:19.116Z,45.67
2018-08-24T15:21:47.318Z,46.17
2018-08-24T15:24:15.554Z,47.77
2018-08-24T15:26:43.783Z,47.55
2018-08-24T15:29:12.028Z,46.95
2018-08-24T15:31:40.222Z,45.84
2018-08-24T15:34:08.442Z,44.71
2018-08-24T15:36:37.180Z,43.16
2018-08-24T15:39:10.315Z,43.90
2018-08-24T15:41:38.892Z,43.25
2018-08-24T15:44:07.424Z,44.12
2018-08-24T15:46:35.664Z,43.36
2018-08-24T15:49:04.650Z,44.06
2018-08-24T15:51:32.835Z,43.39
2018-08-24T15:54:01.021Z,44.38
2018-08-24T15:56:29.284Z,43.79
2018-08-24T15:58:57.511Z,43.51
2018-08-24T16:01:25.855Z,44.41
2018-08-24T16:03:54.315Z,44.64
2018-08-24T16:06:22.598Z,44.14
2018-08-24T16:08:51.098Z,44.17
2018-08-24T16:11:19.384Z,44.57
2018-08-24T16:13:47.829Z,45.81
2018-08-24T16:16:16.417Z,44.82
2018-08-24T16:18:45.142Z,46.48
2018-08-24T16:21:13.862Z,46.51
2018-08-24T16:23:42.473Z,45.95
2018-08-24T16:26:16.465Z,47.45
2018-08-24T16:28:44.782Z,47.29
2018-08-24T16:31:13.259Z,46.89
2018-08-24T16:33:41.619Z,47.35
2018-08-24T16:36:10.168Z,46.71
2018-08-24T16:38:38.448Z,47.36
2018-08-24T16:41:06.775Z,47.37
2018-08-24T16:43:35.197Z,48.18
2018-08-24T16:46:03.437Z,48.94
2018-08-24T16:48:31.742Z,48.27
2018-08-24T16:51:00.019Z,48.51
2018-08-24T16:53:28.444Z,48.29
2018-08-24T16:55:56.879Z,48.79
2018-08-24T16:58:26.152Z,48.54
2018-08-24T17:00:54.612Z,48.35
2018-08-24T17:03:22.883Z,49.08
2018-08-24T17:05:51.135Z,48.95
2018-08-24T17:08:19.385Z,48.80
2018-08-24T17:10:47.724Z,48.85
2018-08-24T17:13:15.967Z,49.20
2018-08-24T17:15:44.356Z,49.45
2018-08-24T17:18:12.504Z,48.89
2018-08-24T17:20:40.721Z,49.14
2018-08-24T17:23:09.001Z,49.65
2018-08-24T17:25:37.598Z,49.75
2018-08-24T17:28:05.842Z,50.30
2018-08-24T17:30:34.036Z,51.76
2018-08-24T17:33:02.260Z,53.09
2018-08-24T17:35:30.486Z,53.00
2018-08-24T17:37:58.887Z,53.52
2018-08-24T17:40:27.125Z,55.09
2018-08-24T17:42:55.650Z,55.69
2018-08-24T17:45:24.039Z,56.47
2018-08-24T17:47:52.464Z,56.90
2018-08-24T17:50:20.728Z,57.49
2018-08-24T17:52:48.925Z,59.27
2018-08-24T17:55:17.076Z,59.35
2018-08-24T17:57:45.276Z,59.14
2018-08-24T18:00:13.454Z,60.38
2018-08-24T18:02:41.674Z,60.40
2018-08-24T18:05:10.023Z,60.10
2018-08-24T18:07:38.233Z,60.59
2018-08-24T18:10:06.500Z,60.05
2018-08-24T18:12:34.736Z,59.92
2018-08-24T18:15:03.146Z,59.90
2018-08-24T18:17:31.232Z,58.12
2018-08-24T18:19:59.461Z,59.44
2018-08-24T18:22:27.692Z,58.80
2018-08-24T18:24:56.001Z,59.00
2018-08-24T18:27:24.218Z,58.63
2018-08-24T18:29:52.482Z,59.08
2018-08-24T18:32:21.402Z,58.95
2018-08-24T18:34:49.823Z,59.24
2018-08-24T18:37:18.047Z,60.47
2018-08-24T18:39:46.424Z,60.08
2018-08-24T18:42:14.630Z,59.49
2018-08-24T18:44:42.896Z,60.00
2018-08-24T18:47:11.223Z,60.40
2018-08-24T18:49:39.430Z,60.98
2018-08-24T18:52:07.713Z,60.62
2018-08-24T18:54:35.897Z,60.81
2018-08-24T18:57:04.333Z,59.43
2018-08-24T18:59:32.554Z,60.66
2018-08-24T19:02:00.867Z,60.25
2018-08-24T19:04:29.024Z,62.02
2018-08-24T19:06:57.243Z,62.03
2018-08-24T19:09:25.412Z,61.93
2018-08-24T19:11:59.403Z,61.62
2018-08-24T19:14:27.531Z,62.92
2018-08-24T19:16:58.685Z,63.27
2018-08-24T19:19:32.654Z,62.98
2018-08-24T19:22:02.855Z,63.65
2018-08-24T19:24:31.347Z,62.25
2018-08-24T19:26:59.757Z,62.86
2018-08-24T19:29:33.637Z,63.57
2018-08-24T19:32:01.846Z,64.36
2018-08-24T19:34:30.098Z,65.21
2018-08-24T19:36:59.212Z,64.58
2018-08-24T19:39:27.746Z,64.97
2018-08-24T19:42:01.573Z,65.27
2018-08-24T19:44:29.974Z,65.30
2018-08-24T19:46:58.317Z,65.58
2018-08-24T19:49:26.647Z,65.81
2018-08-24T19:51:54.852Z,65.18
2018-08-24T19:54:23.086Z,65.33
2018-08-24T19:56:51.419Z,64.50
2018-08-24T19:59:19.752Z,65.71
2018-08-24T20:01:48.170Z,65.52
2018-08-24T20:04:17.421Z,65.71
2018-08-24T20:06:51.230Z,64.51
2018-08-24T20:09:25.100Z,65.53
2018-08-24T20:11:53.437Z,65.36
2018-08-24T20:14:27.679Z,64.15
2018-08-24T20:17:02.000Z,65.36
2018-08-24T20:19:30.232Z,64.52
2018-08-24T20:21:58.453Z,64.09
2018-08-24T20:24:26.851Z,64.46
2018-08-24T20:26:55.193Z,64.16
2018-08-24T20:29:23.472Z,64.75
2018-08-24T20:31:51.760Z,65.70
2018-08-24T20:34:19.935Z,64.99
2018-08-24T20:36:48.128Z,66.38
2018-08-24T20:39:16.385Z,66.24
2018-08-24T20:41:44.588Z,66.47
2018-08-24T20:44:12.750Z,65.85
2018-08-24T20:46:40.996Z,66.25
2018-08-24T20:49:09.249Z,66.78
2018-08-24T20:51:37.556Z,66.79
2018-08-24T20:54:05.755Z,67.29
2018-08-24T20:56:34.021Z,67.43
2018-08-24T20:59:02.285Z,67.51
2018-08-24T21:01:30.764Z,67.82
2018-08-24T21:03:59.284Z,68.32
2018-08-24T21:06:27.433Z,68.33
2018-08-24T21:08:55.750Z,68.15
2018-08-24T21:11:24.037Z,68.49
2018-08-24T21:13:52.290Z,68.23
2018-08-24T21:16:20.561Z,68.59
2018-08-24T21:18:48.846Z,69.15
2018-08-24T21:21:17.189Z,69.32
2018-08-24T21:23:45.438Z,69.29
2018-08-24T21:26:13.788Z,69.63
2018-08-24T21:28:42.220Z,68.40
2018-08-24T21:31:10.436Z,68.73
2018-08-24T21:33:38.745Z,68.91
2018-08-24T21:36:06.948Z,68.49
2018-08-24T21:38:35.123Z,68.42
2018-08-24T21:41:03.490Z,68.21
2018-08-24T21:43:31.674Z,67.87
2018-08-24T21:45:59.947Z,67.10
2018-08-24T21:48:28.170Z,68.36
2018-08-24T21:50:56.422Z,67.85
2018-08-24T21:53:24.736Z,69.52
2018-08-24T21:55:53.012Z,70.73
2018-08-24T21:58:21.820Z,70.80
2018-08-24T22:00:50.097Z,72.08
2018-08-24T22:03:18.331Z,72.28
2018-08-24T22:05:46.507Z,72.29
2018-08-24T22:08:14.758Z,73.60
2018-08-24T22:10:43.064Z,73.55
2018-08-24T22:13:11.480Z,73.65
2018-08-24T22:15:39.810Z,72.85
2018-08-24T22:18:08.124Z,72.90
2018-08-24T22:20:36.320Z,72.78
2018-08-24T22:23:04.584Z,72.86
2018-08-24T22:25:33.486Z,72.10
2018-08-24T22:28:01.884Z,73.05
2018-08-24T22:30:30.141Z,73.43
2018-08-24T22:32:58.304Z,74.14
2018-08-24T22:35:26.444Z,73.50
2018-08-24T22:37:54.580Z,73.99
2018-08-24T22:40:22.831Z,73.46
2018-08-24T22:42:51.075Z,73.59
2018-08-24T22:45:19.324Z,73.50
2018-08-24T22:47:47.656Z,74.10
2018-08-24T22:50:15.914Z,74.10
2018-08-24T22:52:44.136Z,73.38
2018-08-24T22:55:12.324Z,73.73
2018-08-24T22:57:40.580Z,72.39
2018-08-24T23:00:08.895Z,72.55
2018-08-24T23:02:37.134Z,71.97
2018-08-24T23:05:05.327Z,72.45
2018-08-24T23:07:33.432Z,72.23
2018-08-24T23:10:01.543Z,72.54
2018-08-24T23:12:29.692Z,72.16
2018-08-24T23:14:57.917Z,73.01
2018-08-24T23:17:26.042Z,73.61
2018-08-24T23:19:55.269Z,74.18
2018-08-24T23:22:23.462Z,75.16
2018-08-24T23:24:51.774Z,74.46
2018-08-24T23:27:19.928Z,73.44
2018-08-24T23:29:48.111Z,73.18
2018-08-24T23:32:16.409Z,72.99
2018-08-24T23:34:44.607Z,72.41
2018-08-24T23:37:12.870Z,72.42
2018-08-24T23:39:41.130Z,71.53
2018-08-24T23:42:09.361Z,72.34
2018-08-24T23:44:40.900Z,72.00
2018-08-24T23:47:09.163Z,71.54
2018-08-24T23:49:37.559Z,71.14
2018-08-24T23:52:05.867Z,71.02
2018-08-24T23:54:34.113Z,71.41
2018-08-24T23:57:02.325Z,70.60
2018-08-24T23:59:30.615Z,71.46
